createdAt,value
2023-05-01T00:03:02.255Z,1198.75
2023-05-01T00:03:08.365Z,1395.23
2023-05-01T00:04:08.427Z,1222.73
2023-05-01T00:05:08.241Z,1145.66
2023-05-01T00:06:08.282Z,1118.04
2023-05-01T00:07:29.197Z,1101.56
2023-05-01T00:08:08.189Z,1095.28
2023-05-01T00:09:08.129Z,1096.17
2023-05-01T00:10:08.128Z,1072.57
2023-05-01T00:11:08.104Z,1070.01
2023-05-01T00:12:08.091Z,1070.86
2023-05-01T00:13:08.105Z,1095.28
2023-05-01T00:14:08.067Z,1126.46
2023-05-01T00:15:08.053Z,1152.53
2023-05-01T00:16:08.078Z,1139.83
2023-05-01T00:17:08.034Z,1151.54
2023-05-01T00:18:08.082Z,1157.49
2023-05-01T00:19:07.990Z,1148.59
2023-05-01T00:20:07.989Z,1147.61
2023-05-01T00:21:08.004Z,1134.06
2023-05-01T00:22:07.961Z,1137.90
2023-05-01T00:23:07.971Z,1125.52
2023-05-01T00:24:07.963Z,1120.83
2023-05-01T00:25:07.937Z,1101.56
2023-05-01T00:26:07.935Z,1120.83
2023-05-01T00:27:07.940Z,1119.90
2023-05-01T00:28:07.888Z,1130.25
2023-05-01T00:29:07.900Z,1145.66
2023-05-01T00:30:07.880Z,1144.68
2023-05-01T00:31:07.854Z,1132.15
2023-05-01T00:32:07.906Z,1126.46
2023-05-01T00:33:07.856Z,1124.58
2023-05-01T00:34:07.813Z,1133.11
2023-05-01T00:35:07.805Z,1124.58
2023-05-01T00:36:07.851Z,1106.08
2023-05-01T00:37:07.777Z,1082.06
2023-05-01T00:38:07.758Z,1086.43
2023-05-01T00:39:07.751Z,1079.45
2023-05-01T00:40:07.751Z,1083.80
2023-05-01T00:41:07.723Z,1092.61
2023-05-01T00:42:07.736Z,1079.45
2023-05-01T00:43:07.691Z,1094.39
2023-05-01T00:44:07.686Z,1089.95
2023-05-01T00:45:07.668Z,1058.22
2023-05-01T00:46:07.678Z,1049.96
2023-05-01T00:47:07.663Z,1049.14
2023-05-01T00:48:07.701Z,1029.86
2023-05-01T00:49:07.628Z,1011.28
2023-05-01T00:50:07.615Z,984.63
2023-05-01T00:51:07.595Z,951.20
2023-05-01T00:52:07.575Z,941.22
2023-05-01T00:53:07.575Z,944.52
2023-05-01T00:54:07.596Z,934.03
2023-05-01T00:55:07.572Z,925.03
2023-05-01T00:56:07.538Z,929.51
2023-05-01T00:57:07.546Z,925.67
2023-05-01T00:58:07.497Z,913.72
2023-05-01T00:59:07.479Z,909.40
2023-05-01T01:01:07.402Z,384.34
2023-05-01T01:02:08.338Z,563.61
2023-05-01T01:03:08.408Z,667.82
2023-05-01T01:04:08.340Z,730.25
2023-05-01T01:05:08.389Z,777.46
2023-05-01T01:06:08.375Z,813.18
2023-05-01T01:07:08.284Z,806.84
2023-05-01T01:08:08.270Z,819.12
2023-05-01T01:09:08.265Z,830.25
2023-05-01T01:10:08.245Z,832.82
2023-05-01T01:11:08.259Z,826.17
2023-05-01T01:12:08.221Z,820.62
2023-05-01T01:13:08.201Z,826.67
2023-05-01T01:14:08.190Z,832.30
2023-05-01T01:15:08.179Z,827.18
2023-05-01T01:16:08.207Z,824.14
2023-05-01T01:17:08.295Z,819.12
2023-05-01T01:18:08.189Z,802.03
2023-05-01T01:19:08.136Z,795.86
2023-05-01T01:20:08.112Z,798.69
2023-05-01T01:21:08.101Z,797.75
2023-05-01T01:22:08.103Z,802.98
2023-05-01T01:23:08.073Z,802.03
2023-05-01T01:24:08.061Z,804.42
2023-05-01T01:25:08.039Z,802.03
2023-05-01T01:26:08.034Z,804.42
2023-05-01T01:27:08.018Z,805.87
2023-05-01T01:28:08.067Z,796.33
2023-05-01T01:29:08.003Z,798.69
2023-05-01T01:30:07.996Z,794.45
2023-05-01T01:31:08.055Z,786.09
2023-05-01T01:32:07.954Z,774.77
2023-05-01T01:33:08.572Z,786.09
2023-05-01T01:34:07.957Z,783.80
2023-05-01T01:35:07.929Z,771.66
2023-05-01T01:36:07.948Z,740.71
2023-05-01T01:37:07.918Z,727.09
2023-05-01T01:38:07.938Z,704.22
2023-05-01T01:39:07.866Z,689.76
2023-05-01T01:40:07.877Z,658.66
2023-05-01T01:41:07.835Z,635.60
2023-05-01T01:42:07.826Z,625.54
2023-05-01T01:43:07.862Z,599.31
2023-05-01T01:44:07.804Z,583.69
2023-05-01T01:45:07.781Z,580.16
2023-05-01T01:46:07.864Z,550.68
2023-05-01T01:47:07.776Z,533.20
2023-05-01T01:48:07.886Z,499.50
2023-05-01T01:49:07.757Z,466.55
2023-05-01T01:50:07.711Z,425.75
2023-05-01T01:51:07.708Z,395.19
2023-05-01T01:52:07.709Z,370.37
2023-05-01T01:53:07.688Z,344.15
2023-05-01T01:54:07.665Z,308.50
2023-05-01T01:55:07.703Z,277.66
2023-05-01T01:56:07.647Z,266.90
2023-05-01T01:57:07.632Z,261.42
2023-05-01T01:58:07.642Z,251.09
2023-05-01T01:59:07.618Z,250.71
2023-05-01T02:00:07.584Z,246.04
2023-05-01T02:01:07.614Z,246.41
2023-05-01T02:02:07.588Z,237.05
2023-05-01T02:03:07.674Z,236.54
2023-05-01T02:04:07.572Z,234.03
2023-05-01T02:05:07.547Z,233.70
2023-05-01T02:06:07.675Z,223.28
2023-05-01T02:07:07.500Z,229.64
2023-05-01T02:08:07.505Z,225.10
2023-05-01T02:09:07.479Z,216.55
2023-05-01T02:10:07.500Z,213.61
2023-05-01T02:11:07.465Z,201.99
2023-05-01T02:12:07.466Z,188.09
2023-05-01T02:13:07.426Z,174.77
2023-05-01T02:14:07.424Z,159.66
2023-05-01T02:15:07.482Z,157.42
2023-05-01T02:16:07.440Z,155.53
2023-05-01T02:17:07.416Z,148.78
2023-05-01T02:18:07.428Z,145.69
2023-05-01T02:19:07.347Z,139.41
2023-05-01T02:20:07.344Z,133.33
2023-05-01T02:21:07.322Z,129.83
2023-05-01T02:22:07.377Z,122.36
2023-05-01T02:23:07.319Z,115.79
2023-05-01T02:24:07.334Z,110.46
2023-05-01T02:25:07.278Z,105.54
2023-05-01T02:26:07.279Z,101.04
2023-05-01T02:27:07.275Z,96.35
2023-05-01T02:28:07.260Z,94.32
2023-05-01T02:29:07.224Z,89.60
2023-05-01T02:30:07.217Z,85.58
2023-05-01T02:31:07.240Z,83.13
2023-05-01T02:32:07.319Z,80.73
2023-05-01T02:33:07.225Z,78.18
2023-05-01T02:34:07.180Z,76.33
2023-05-01T02:35:07.158Z,74.77
2023-05-01T02:36:07.137Z,75.92
2023-05-01T02:37:07.138Z,75.11
2023-05-01T02:38:07.128Z,74.64
2023-05-01T02:39:07.112Z,74.05
2023-05-01T02:40:07.086Z,73.27
2023-05-01T02:41:07.075Z,72.77
2023-05-01T02:42:07.066Z,72.39
2023-05-01T02:43:07.062Z,71.89
2023-05-01T02:44:07.048Z,71.77
2023-05-01T02:45:07.015Z,71.83
2023-05-01T02:46:07.088Z,71.22
2023-05-01T02:47:07.114Z,70.57
2023-05-01T02:48:07.066Z,71.41
2023-05-01T02:49:06.987Z,70.68
2023-05-01T02:50:06.963Z,68.16
2023-05-01T02:51:06.940Z,66.44
2023-05-01T02:52:06.940Z,64.35
2023-05-01T02:53:06.946Z,62.72
2023-05-01T02:54:06.916Z,61.26
2023-05-01T02:55:06.964Z,60.38
2023-05-01T02:56:06.877Z,59.06
2023-05-01T02:57:06.884Z,58.29
2023-05-01T02:58:06.875Z,57.69
2023-05-01T02:59:06.867Z,56.87
2023-05-01T03:00:06.847Z,56.60
2023-05-01T03:01:06.892Z,56.03
2023-05-01T03:02:06.823Z,55.88
2023-05-01T03:03:06.924Z,55.55
2023-05-01T03:04:06.838Z,54.86
2023-05-01T03:05:06.772Z,54.40
2023-05-01T03:06:06.787Z,53.74
2023-05-01T03:07:06.769Z,53.06
2023-05-01T03:08:06.762Z,52.63
2023-05-01T03:09:06.744Z,52.63
2023-05-01T03:10:06.718Z,52.69
2023-05-01T03:11:06.679Z,52.66
2023-05-01T03:12:06.684Z,52.24
2023-05-01T03:13:06.691Z,52.37
2023-05-01T03:14:06.712Z,52.60
2023-05-01T03:15:06.643Z,52.53
2023-05-01T03:16:06.663Z,52.01
2023-05-01T03:17:06.656Z,51.66
2023-05-01T03:18:06.685Z,51.44
2023-05-01T03:19:06.583Z,51.47
2023-05-01T03:20:06.599Z,51.09
2023-05-01T03:21:06.553Z,50.78
2023-05-01T03:22:06.536Z,50.33
2023-05-01T03:23:06.541Z,50.06
2023-05-01T03:24:06.522Z,49.79
2023-05-01T03:25:06.516Z,49.62
2023-05-01T03:26:06.507Z,49.35
2023-05-01T03:27:06.477Z,48.87
2023-05-01T03:28:06.493Z,48.78
2023-05-01T03:29:06.466Z,48.75
2023-05-01T03:30:06.442Z,48.72
2023-05-01T03:31:06.438Z,48.31
2023-05-01T03:32:06.477Z,48.06
2023-05-01T03:33:06.400Z,47.67
2023-05-01T03:34:06.401Z,47.38
2023-05-01T03:35:06.418Z,47.03
2023-05-01T03:36:06.357Z,47.09
2023-05-01T03:37:06.337Z,47.09
2023-05-01T03:38:06.352Z,47.62
2023-05-01T03:39:06.380Z,47.09
2023-05-01T03:40:06.308Z,46.75
2023-05-01T03:41:06.292Z,46.54
2023-05-01T03:42:06.300Z,46.08
2023-05-01T03:43:06.298Z,45.34
2023-05-01T03:44:06.293Z,44.90
2023-05-01T03:45:06.237Z,44.33
2023-05-01T03:46:06.282Z,43.96
2023-05-01T03:47:06.213Z,43.55
2023-05-01T03:48:06.317Z,43.28
2023-05-01T03:49:06.248Z,42.76
2023-05-01T03:50:06.186Z,42.33
2023-05-01T03:51:06.162Z,42.16
2023-05-01T03:52:06.151Z,42.28
2023-05-01T03:53:06.153Z,41.95
2023-05-01T03:54:06.161Z,41.90
2023-05-01T03:55:06.121Z,41.57
2023-05-01T03:56:06.094Z,41.90
2023-05-01T03:57:06.087Z,41.90
2023-05-01T03:58:06.112Z,41.57
2023-05-01T03:59:06.083Z,41.09
2023-05-01T04:00:06.044Z,40.93
2023-05-01T04:01:06.040Z,40.69
2023-05-01T04:02:06.050Z,40.53
2023-05-01T04:03:06.302Z,40.46
2023-05-01T04:04:06.104Z,40.34
2023-05-01T04:05:06.031Z,40.49
2023-05-01T04:06:06.006Z,40.42
2023-05-01T04:07:05.957Z,40.30
2023-05-01T04:08:05.970Z,39.88
2023-05-01T04:09:05.944Z,39.84
2023-05-01T04:10:05.930Z,40.07
2023-05-01T04:11:05.928Z,40.07
2023-05-01T04:12:05.890Z,40.07
2023-05-01T04:13:05.871Z,40.03
2023-05-01T04:14:05.883Z,39.84
2023-05-01T04:15:05.893Z,39.73
2023-05-01T04:16:05.912Z,39.62
2023-05-01T04:17:05.898Z,39.58
2023-05-01T04:18:05.895Z,39.77
2023-05-01T04:19:05.798Z,39.58
2023-05-01T04:20:05.803Z,39.47
2023-05-01T04:21:05.810Z,39.36
2023-05-01T04:22:05.861Z,39.17
2023-05-01T04:23:05.805Z,38.85
2023-05-01T04:24:05.737Z,38.96
2023-05-01T04:25:05.732Z,38.46
2023-05-01T04:26:05.730Z,38.60
2023-05-01T04:27:05.712Z,38.46
2023-05-01T04:28:05.729Z,38.28
2023-05-01T04:29:05.695Z,37.87
2023-05-01T04:30:05.656Z,37.63
2023-05-01T04:31:05.667Z,37.60
2023-05-01T04:32:05.748Z,37.53
2023-05-01T04:33:05.695Z,37.53
2023-05-01T04:34:05.608Z,37.33
2023-05-01T04:35:05.620Z,37.33
2023-05-01T04:36:05.580Z,37.20
2023-05-01T04:37:05.573Z,36.91
2023-05-01T04:38:05.552Z,37.00
2023-05-01T04:39:05.540Z,36.91
2023-05-01T04:40:05.535Z,36.81
2023-05-01T04:41:05.536Z,36.58
2023-05-01T04:42:05.503Z,36.71
2023-05-01T04:43:05.495Z,36.71
2023-05-01T04:44:05.495Z,36.78
2023-05-01T04:45:05.459Z,36.58
2023-05-01T04:46:05.524Z,36.65
2023-05-01T04:47:05.608Z,36.71
2023-05-01T04:48:05.464Z,36.78
2023-05-01T04:49:05.413Z,36.62
2023-05-01T04:50:05.399Z,36.91
2023-05-01T04:51:05.427Z,36.91
2023-05-01T04:52:05.392Z,37.00
2023-05-01T04:53:05.377Z,36.91
2023-05-01T04:54:05.347Z,36.91
2023-05-01T04:55:05.342Z,36.97
2023-05-01T04:56:05.345Z,37.00
2023-05-01T04:57:05.318Z,37.07
2023-05-01T04:58:05.356Z,37.27
2023-05-01T04:59:05.292Z,37.50
2023-05-01T05:00:05.295Z,37.77
2023-05-01T05:01:05.297Z,38.11
2023-05-01T05:02:05.313Z,38.46
2023-05-01T05:03:05.393Z,38.88
2023-05-01T05:04:05.318Z,39.32
2023-05-01T05:05:05.214Z,39.25
2023-05-01T05:06:05.226Z,39.77
2023-05-01T05:07:05.198Z,39.54
2023-05-01T05:08:05.171Z,39.47
2023-05-01T05:09:05.187Z,39.62
2023-05-01T05:10:05.157Z,39.58
2023-05-01T05:11:05.129Z,39.43
2023-05-01T05:12:05.115Z,39.10
2023-05-01T05:13:05.124Z,38.74
2023-05-01T05:14:05.150Z,38.63
2023-05-01T05:15:05.103Z,38.39
2023-05-01T05:16:05.148Z,38.21
2023-05-01T05:17:05.065Z,38.18
2023-05-01T05:18:05.087Z,38.11
2023-05-01T05:19:05.038Z,37.90
2023-05-01T05:20:05.037Z,37.77
2023-05-01T05:21:05.084Z,37.77
2023-05-01T05:22:04.992Z,37.63
2023-05-01T05:23:04.975Z,37.40
2023-05-01T05:24:04.957Z,37.30
2023-05-01T05:25:04.973Z,37.27
2023-05-01T05:26:04.943Z,37.37
2023-05-01T05:27:04.945Z,37.30
2023-05-01T05:28:04.922Z,37.30
2023-05-01T05:29:04.933Z,37.50
2023-05-01T05:30:04.899Z,37.70
2023-05-01T05:31:04.881Z,38.04
2023-05-01T05:32:04.974Z,38.28
2023-05-01T05:33:04.948Z,38.60
2023-05-01T05:34:04.830Z,39.03
2023-05-01T05:35:04.832Z,39.28
2023-05-01T05:36:04.835Z,39.77
2023-05-01T05:37:04.848Z,40.03
2023-05-01T05:38:04.831Z,40.15
2023-05-01T05:39:04.784Z,40.38
2023-05-01T05:40:04.810Z,40.69
2023-05-01T05:41:04.808Z,40.89
2023-05-01T05:42:04.790Z,41.17
2023-05-01T05:43:04.733Z,41.33
2023-05-01T05:44:04.744Z,41.49
2023-05-01T05:45:04.728Z,41.74
2023-05-01T05:46:04.758Z,41.90
2023-05-01T05:47:04.766Z,41.95
2023-05-01T05:48:04.696Z,41.70
2023-05-01T05:49:04.673Z,41.62
2023-05-01T05:50:04.708Z,41.49
2023-05-01T05:51:04.638Z,41.66
2023-05-01T05:52:04.616Z,41.78
2023-05-01T05:53:04.602Z,41.90
2023-05-01T05:54:04.579Z,42.07
2023-05-01T05:55:04.567Z,42.07
2023-05-01T05:56:04.574Z,42.03
2023-05-01T05:57:04.544Z,41.90
2023-05-01T05:58:04.557Z,42.07
2023-05-01T05:59:04.578Z,41.90
2023-05-01T06:00:04.496Z,41.57
2023-05-01T06:01:04.544Z,41.33
2023-05-01T06:02:04.564Z,41.29
2023-05-01T06:03:04.539Z,41.05
2023-05-01T06:04:04.468Z,40.77
2023-05-01T06:05:04.465Z,40.65
2023-05-01T06:06:04.559Z,40.73
2023-05-01T06:07:04.492Z,40.18
2023-05-01T06:08:04.428Z,40.22
2023-05-01T06:09:04.408Z,40.49
2023-05-01T06:10:04.398Z,40.22
2023-05-01T06:11:04.362Z,39.88
2023-05-01T06:12:04.346Z,40.26
2023-05-01T06:13:13.304Z,40.77
2023-05-01T06:14:04.328Z,41.25
2023-05-01T06:15:04.319Z,41.41
2023-05-01T06:16:04.364Z,41.62
2023-05-01T06:17:04.292Z,41.33
2023-05-01T06:18:04.293Z,41.53
2023-05-01T06:19:04.278Z,40.81
2023-05-01T06:20:04.266Z,40.85
2023-05-01T06:21:04.228Z,41.57
2023-05-01T06:22:04.223Z,41.70
2023-05-01T06:23:04.207Z,42.16
2023-05-01T06:24:04.212Z,42.16
2023-05-01T06:25:04.186Z,42.84
2023-05-01T06:26:04.179Z,42.93
2023-05-01T06:27:04.176Z,43.11
2023-05-01T06:28:04.177Z,43.55
2023-05-01T06:29:04.178Z,43.06
2023-05-01T06:30:04.122Z,42.97
2023-05-01T06:31:04.131Z,43.06
2023-05-01T06:32:04.184Z,43.55
2023-05-01T06:33:04.147Z,42.93
2023-05-01T06:34:04.069Z,43.33
2023-05-01T06:35:04.068Z,42.46
2023-05-01T06:36:04.060Z,42.16
2023-05-01T06:37:04.063Z,41.95
2023-05-01T06:38:04.016Z,41.57
2023-05-01T06:39:04.069Z,41.25
2023-05-01T06:40:04.007Z,41.49
2023-05-01T06:41:03.995Z,40.97
2023-05-01T06:42:03.971Z,40.85
2023-05-01T06:43:03.949Z,41.09
2023-05-01T06:44:03.957Z,40.61
2023-05-01T06:45:03.928Z,40.69
2023-05-01T06:46:03.943Z,40.22
2023-05-01T06:47:03.952Z,40.77
2023-05-01T06:48:03.936Z,40.42
2023-05-01T06:49:03.879Z,40.69
2023-05-01T06:50:05.547Z,40.57
2023-05-01T06:51:03.858Z,40.49
2023-05-01T06:52:03.843Z,40.61
2023-05-01T06:53:03.814Z,41.01
2023-05-01T06:54:03.853Z,40.73
2023-05-01T06:55:03.894Z,40.93
2023-05-01T06:56:03.785Z,41.45
2023-05-01T06:57:03.776Z,40.65
2023-05-01T06:58:15.897Z,41.05
2023-05-01T06:59:03.787Z,40.38
2023-05-01T07:00:03.722Z,40.34
2023-05-01T07:01:03.771Z,40.57
2023-05-01T07:02:03.770Z,39.88
2023-05-01T07:03:03.718Z,40.38
2023-05-01T07:04:03.692Z,40.26
2023-05-01T07:05:03.693Z,40.30
2023-05-01T07:06:03.732Z,40.07
2023-05-01T07:07:03.684Z,39.99
2023-05-01T07:08:03.642Z,39.39
2023-05-01T07:09:03.639Z,39.17
2023-05-01T07:10:03.614Z,39.47
2023-05-01T07:11:03.588Z,39.73
2023-05-01T07:12:03.578Z,39.69
2023-05-01T07:13:03.618Z,39.80
2023-05-01T07:14:03.551Z,40.15
2023-05-01T07:15:03.570Z,40.46
2023-05-01T07:16:03.536Z,40.61
2023-05-01T07:17:03.558Z,40.89
2023-05-01T07:18:03.601Z,40.89
2023-05-01T07:19:03.528Z,40.53
2023-05-01T07:20:03.467Z,40.07
2023-05-01T07:21:03.476Z,39.92
2023-05-01T07:22:03.456Z,39.77
2023-05-01T07:23:04.714Z,40.03
2023-05-01T07:24:03.444Z,40.07
2023-05-01T07:25:03.442Z,40.03
2023-05-01T07:26:03.418Z,40.07
2023-05-01T07:27:03.404Z,40.18
2023-05-01T07:28:03.376Z,40.30
2023-05-01T07:29:03.381Z,41.25
2023-05-01T07:30:03.360Z,42.24
2023-05-01T07:31:03.361Z,43.02
2023-05-01T07:32:03.367Z,44.29
2023-05-01T07:33:03.372Z,44.85
2023-05-01T07:34:03.334Z,45.34
2023-05-01T07:35:03.281Z,45.98
2023-05-01T07:36:03.275Z,46.39
2023-05-01T07:37:03.277Z,46.80
2023-05-01T07:38:03.252Z,47.17
2023-05-01T07:39:03.246Z,47.09
2023-05-01T07:40:03.237Z,46.70
2023-05-01T07:41:03.234Z,47.38
2023-05-01T07:42:03.201Z,48.92
2023-05-01T07:43:03.194Z,49.82
2023-05-01T07:44:03.181Z,50.36
2023-05-01T07:45:03.156Z,50.00
2023-05-01T07:46:03.199Z,50.42
2023-05-01T07:47:03.152Z,51.66
2023-05-01T07:48:03.201Z,52.50
2023-05-01T07:49:03.097Z,53.23
2023-05-01T07:50:03.121Z,53.60
2023-05-01T07:51:03.067Z,53.67
2023-05-01T07:52:03.070Z,53.50
2023-05-01T07:53:03.091Z,53.53
2023-05-01T07:54:03.063Z,53.57
2023-05-01T07:55:03.032Z,53.98
2023-05-01T07:56:03.034Z,54.58
2023-05-01T07:57:02.993Z,54.68
2023-05-01T07:58:02.993Z,55.26
2023-05-01T07:59:03.033Z,56.18
2023-05-01T08:00:03.021Z,55.55
2023-05-01T08:01:02.940Z,54.65
2023-05-01T08:02:02.936Z,54.76
2023-05-01T08:03:03.012Z,55.55
2023-05-01T08:04:03.071Z,57.25
2023-05-01T08:05:03.056Z,58.98
2023-05-01T08:06:02.991Z,59.78
2023-05-01T08:07:02.900Z,59.65
2023-05-01T08:08:02.908Z,60.77
2023-05-01T08:09:02.916Z,64.11
2023-05-01T08:10:03.131Z,67.13
2023-05-01T08:11:02.858Z,70.10
2023-05-01T08:12:02.796Z,76.06
2023-05-01T08:13:02.809Z,86.20
2023-05-01T08:14:02.799Z,95.69
2023-05-01T08:15:02.812Z,97.35
2023-05-01T08:16:02.823Z,95.36
2023-05-01T08:17:02.788Z,95.58
2023-05-01T08:18:02.762Z,102.58
2023-05-01T08:19:02.748Z,110.46
2023-05-01T08:20:02.754Z,112.38
2023-05-01T08:21:02.694Z,108.05
2023-05-01T08:22:02.673Z,102.33
2023-05-01T08:23:02.713Z,103.40
2023-05-01T08:24:02.691Z,110.46
2023-05-01T08:25:02.685Z,111.86
2023-05-01T08:26:02.670Z,106.81
2023-05-01T08:27:02.628Z,112.23
2023-05-01T08:28:02.601Z,114.21
2023-05-01T08:29:02.682Z,116.92
2023-05-01T08:30:02.577Z,118.82
2023-05-01T08:31:02.614Z,123.08
2023-05-01T08:32:02.603Z,122.63
2023-05-01T08:33:02.575Z,120.52
2023-05-01T08:34:02.529Z,130.84
2023-05-01T08:35:02.531Z,140.57
2023-05-01T08:36:02.510Z,152.01
2023-05-01T08:37:02.483Z,163.70
2023-05-01T08:38:02.493Z,181.17
2023-05-01T08:39:02.546Z,176.60
2023-05-01T08:40:02.455Z,160.42
2023-05-01T08:41:02.497Z,154.95
2023-05-01T08:42:02.438Z,158.31
2023-05-01T08:43:02.506Z,174.77
2023-05-01T08:44:02.398Z,181.36
2023-05-01T08:45:02.384Z,183.74
2023-05-01T08:46:02.383Z,186.50
2023-05-01T08:47:02.448Z,177.16
2023-05-01T08:48:02.395Z,173.32
2023-05-01T08:49:02.325Z,177.16
2023-05-01T08:50:02.341Z,181.76
2023-05-01T08:51:02.327Z,164.83
2023-05-01T08:52:02.301Z,151.74
2023-05-01T08:53:02.294Z,146.20
2023-05-01T08:54:02.274Z,142.84
2023-05-01T08:55:02.286Z,148.52
2023-05-01T08:56:02.242Z,150.38
2023-05-01T08:57:02.231Z,138.95
2023-05-01T08:58:02.207Z,133.01
2023-05-01T08:59:02.229Z,131.55
2023-05-01T09:00:02.243Z,139.52
2023-05-01T09:01:02.187Z,149.44
2023-05-01T09:02:02.276Z,162.13
2023-05-01T09:03:02.328Z,180.01
2023-05-01T09:04:02.318Z,189.27
2023-05-01T09:05:02.126Z,201.75
2023-05-01T09:06:02.146Z,208.23
2023-05-01T09:07:02.144Z,205.77
2023-05-01T09:08:02.121Z,208.75
2023-05-01T09:09:02.088Z,205.26
2023-05-01T09:10:02.138Z,211.42
2023-05-01T09:11:02.069Z,208.62
2023-05-01T09:12:02.060Z,202.37
2023-05-01T09:13:02.066Z,200.77
2023-05-01T09:14:02.049Z,204.49
2023-05-01T09:15:02.090Z,201.50
2023-05-01T09:16:02.071Z,204.62
2023-05-01T09:17:01.981Z,211.42
2023-05-01T09:18:03.811Z,205.64
2023-05-01T09:19:02.030Z,204.87
2023-05-01T09:20:01.958Z,213.34
2023-05-01T09:21:01.981Z,215.98
2023-05-01T09:22:01.953Z,230.28
2023-05-01T09:23:01.945Z,232.71
2023-05-01T09:24:01.937Z,231.40
2023-05-01T09:25:01.874Z,224.79
2023-05-01T09:26:01.885Z,248.26
2023-05-01T09:27:01.890Z,260.59
2023-05-01T09:28:01.971Z,260.59
2023-05-01T09:29:02.894Z,261.83
2023-05-01T09:30:01.919Z,262.45
2023-05-01T09:31:01.797Z,262.87
2023-05-01T09:32:01.939Z,296.86
2023-05-01T09:33:01.913Z,322.34
2023-05-01T09:34:01.748Z,327.77
2023-05-01T09:35:01.752Z,311.70
2023-05-01T09:36:01.765Z,297.93
2023-05-01T09:37:01.730Z,304.80
2023-05-01T09:38:01.729Z,322.34
2023-05-01T09:39:01.726Z,369.54
2023-05-01T09:40:01.701Z,371.20
2023-05-01T09:41:01.677Z,351.47
2023-05-01T09:42:01.715Z,367.49
2023-05-01T09:43:01.650Z,386.55
2023-05-01T09:44:01.699Z,408.16
2023-05-01T09:45:01.638Z,415.73
2023-05-01T09:46:01.681Z,448.48
2023-05-01T09:47:01.586Z,447.59
2023-05-01T09:48:01.693Z,501.36
2023-05-01T09:49:01.600Z,529.83
2023-05-01T09:50:01.604Z,506.66
2023-05-01T09:51:01.586Z,477.15
2023-05-01T09:52:01.552Z,460.16
2023-05-01T09:53:01.544Z,476.81
2023-05-01T09:54:01.516Z,489.67
2023-05-01T09:55:01.508Z,519.59
2023-05-01T09:56:01.540Z,521.60
2023-05-01T09:57:01.520Z,499.50
2023-05-01T09:58:01.475Z,498.39
2023-05-01T09:59:01.469Z,554.31
2023-05-01T10:00:01.461Z,567.90
2023-05-01T10:01:01.519Z,539.19
2023-05-01T10:02:01.530Z,519.19
2023-05-01T10:03:01.518Z,510.12
2023-05-01T10:04:01.453Z,490.03
2023-05-01T10:05:01.438Z,491.46
2023-05-01T10:06:01.474Z,475.46
2023-05-01T10:07:01.574Z,462.69
2023-05-01T10:08:01.357Z,437.10
2023-05-01T10:09:01.346Z,454.24
2023-05-01T10:10:01.921Z,463.01
2023-05-01T10:11:01.343Z,440.83
2023-05-01T10:12:01.288Z,425.48
2023-05-01T10:13:01.290Z,426.29
2023-05-01T10:14:01.271Z,419.89
2023-05-01T10:15:07.891Z,417.80
2023-05-01T10:16:01.254Z,422.27
2023-05-01T10:17:01.338Z,455.79
2023-05-01T10:18:01.339Z,462.69
2023-05-01T10:19:02.346Z,456.10
2023-05-01T10:20:02.279Z,444.92
2023-05-01T10:25:56.171Z,136.57
2023-05-01T10:26:57.185Z,243.87
2023-05-01T10:27:57.155Z,320.46
2023-05-01T10:28:57.125Z,399.66
2023-05-01T10:29:57.278Z,450.29
2023-05-01T10:30:57.147Z,494.35
2023-05-01T10:31:57.201Z,516.00
2023-05-01T10:32:57.127Z,514.42
2023-05-01T10:33:57.063Z,524.05
2023-05-01T10:34:57.303Z,551.13
2023-05-01T10:35:57.027Z,604.71
2023-05-01T10:36:57.009Z,635.60
2023-05-01T10:37:57.030Z,665.18
2023-05-01T10:38:57.000Z,693.32
2023-05-01T10:39:57.081Z,739.90
2023-05-01T10:40:56.976Z,759.03
2023-05-01T10:41:56.953Z,728.66
2023-05-01T10:42:56.956Z,716.23
2023-05-01T10:43:56.980Z,725.52
2023-05-01T10:44:57.159Z,694.76
2023-05-01T10:45:56.936Z,691.18
2023-05-01T10:46:56.930Z,716.23
2023-05-01T10:47:56.952Z,748.89
2023-05-01T10:48:56.870Z,699.82
2023-05-01T10:49:56.907Z,679.99
2023-05-01T10:50:56.854Z,694.04
2023-05-01T10:51:56.868Z,688.35
2023-05-01T10:52:56.843Z,679.30
2023-05-01T10:53:56.793Z,694.76
2023-05-01T10:54:57.098Z,677.25
2023-05-01T10:55:56.807Z,623.79
2023-05-01T10:56:56.813Z,592.96
2023-05-01T10:57:56.768Z,573.72
2023-05-01T10:58:56.749Z,594.01
2023-05-01T10:59:56.729Z,635.00
2023-05-01T11:00:56.746Z,644.75
2023-05-01T11:01:56.799Z,684.14
2023-05-01T11:02:56.764Z,711.68
2023-05-01T11:03:56.672Z,727.87
2023-05-01T11:04:57.050Z,735.04
2023-05-01T11:05:56.724Z,757.32
2023-05-01T11:06:56.731Z,781.98
2023-05-01T11:07:56.638Z,808.29
2023-05-01T11:08:56.722Z,824.65
2023-05-01T11:09:56.611Z,791.18
2023-05-01T11:10:56.598Z,785.63
2023-05-01T11:11:56.630Z,784.71
2023-05-01T11:12:56.620Z,815.65
2023-05-01T11:13:56.560Z,838.53
2023-05-01T11:14:56.853Z,856.14
2023-05-01T11:15:56.574Z,850.73
2023-05-01T11:16:56.533Z,879.66
2023-05-01T11:17:56.540Z,855.60
2023-05-01T11:18:56.519Z,873.94
2023-05-01T11:19:56.507Z,843.79
2023-05-01T11:20:56.491Z,832.30
2023-05-01T11:21:56.512Z,809.75
2023-05-01T11:22:56.496Z,830.76
2023-05-01T11:23:56.526Z,807.32
2023-05-01T11:24:56.835Z,756.47
2023-05-01T11:25:57.352Z,757.75
2023-05-01T11:26:56.463Z,766.82
2023-05-01T11:27:56.392Z,788.86
2023-05-01T11:28:56.461Z,803.46
2023-05-01T11:29:56.388Z,798.22
2023-05-01T11:30:56.624Z,829.22
2023-05-01T11:31:56.461Z,822.13
2023-05-01T11:32:56.650Z,783.34
2023-05-01T11:33:56.359Z,777.01
2023-05-01T11:34:56.479Z,756.04
2023-05-01T11:35:56.309Z,768.57
2023-05-01T11:36:56.313Z,785.63
2023-05-01T11:37:56.338Z,805.39
2023-05-01T11:38:56.266Z,838.53
2023-05-01T11:39:56.254Z,832.30
2023-05-01T11:40:56.254Z,811.71
2023-05-01T11:41:56.334Z,816.14
2023-05-01T11:42:56.215Z,800.12
2023-05-01T11:43:56.230Z,787.01
2023-05-01T11:44:56.405Z,839.58
2023-05-01T11:45:56.202Z,849.65
2023-05-01T11:46:56.168Z,850.19
2023-05-01T11:47:56.201Z,883.12
2023-05-01T11:48:56.156Z,826.67
2023-05-01T11:49:56.137Z,787.01
2023-05-01T11:50:56.123Z,725.52
2023-05-01T11:51:56.168Z,731.84
2023-05-01T11:52:56.092Z,713.95
2023-05-01T11:53:56.104Z,624.96
2023-05-01T11:54:56.075Z,578.16
2023-05-01T11:55:56.115Z,547.98
2023-05-01T11:56:56.039Z,553.40
2023-05-01T11:57:56.034Z,578.16
2023-05-01T11:58:56.023Z,577.67
2023-05-01T11:59:56.023Z,548.43
2023-05-01T12:00:56.001Z,549.78
2023-05-01T12:01:55.993Z,564.09
2023-05-01T12:02:56.048Z,554.31
2023-05-01T12:03:56.035Z,548.88
2023-05-01T12:04:56.023Z,547.09
2023-05-01T12:05:55.952Z,593.49
2023-05-01T12:06:55.921Z,617.49
2023-05-01T12:07:55.907Z,598.24
2023-05-01T12:08:55.918Z,572.26
2023-05-01T12:09:55.915Z,540.92
2023-05-01T12:10:55.888Z,490.39
2023-05-01T12:11:55.881Z,465.90
2023-05-01T12:12:55.837Z,458.58
2023-05-01T12:13:55.832Z,420.15
2023-05-01T12:14:56.034Z,366.27
2023-05-01T12:15:55.820Z,357.94
2023-05-01T12:16:55.831Z,335.08
2023-05-01T12:17:55.830Z,296.86
2023-05-01T12:18:55.797Z,269.30
2023-05-01T12:19:55.752Z,226.18
2023-05-01T12:20:55.740Z,222.83
2023-05-01T12:21:55.720Z,188.73
2023-05-01T12:22:55.724Z,175.49
2023-05-01T12:23:55.722Z,152.29
2023-05-01T12:24:56.064Z,141.52
2023-05-01T12:25:55.673Z,126.69
2023-05-01T12:26:55.701Z,121.57
2023-05-01T12:27:55.663Z,129.53
2023-05-01T12:28:55.654Z,138.26
2023-05-01T12:29:55.648Z,129.73
2023-05-01T12:30:55.620Z,132.38
2023-05-01T12:31:55.643Z,134.61
2023-05-01T12:32:55.669Z,134.07
2023-05-01T12:33:55.585Z,140.93
2023-05-01T12:34:55.572Z,145.69
2023-05-01T12:35:55.567Z,141.64
2023-05-01T12:36:55.560Z,133.22
2023-05-01T12:37:55.513Z,128.05
2023-05-01T12:38:55.513Z,126.60
2023-05-01T12:39:55.505Z,119.15
2023-05-01T12:40:55.510Z,118.48
2023-05-01T12:41:55.502Z,136.35
2023-05-01T12:42:55.447Z,134.71
2023-05-01T12:43:55.445Z,124.08
2023-05-01T12:44:55.438Z,138.95